Flight Track Log - Related Links

Times and Time Zones

All times are in EDT time to prevent confusion due to time zone crossing. See the DAL1781 flight status page for this flight to view local times or setup timezone preferences in your user account.

Time Position Orientation Groundspeed Altitude Reporting Facility
EDT Latitude Longitude Course Direction KTS MPH feet Rate Location/Type
Tue 05:30:34 PM 43.4664 -116.1433 126° Southeast 287 330 10,600  Level Salt Lake Center
Tue 05:31:00 PM 43.3393 -115.8548 120° Southeast  Level Estimated
Tue 05:31:36 PM 43.4256 -116.0278 116° Southeast 329 379 12,900  Level Salt Lake Center
Tue 05:32:00 PM 43.3232 -115.6963 98° East  Level FlightAware Approximate
Tue 05:32:37 PM 43.3722 -115.8869 117° Southeast 403 464 15,600  Level Salt Lake Center
Tue 05:33:00 PM 43.2462 -115.5762 121° Southeast  Level Estimated
Tue 05:33:39 PM 43.3156 -115.7367 117° Southeast 421 484 18,600  Level Salt Lake Center
Tue 05:34:00 PM 43.1692 -115.4564 120° Southeast  Level Estimated
Tue 05:34:41 PM 43.2608 -115.5925 117° Southeast 443 510 21,000  Level Salt Lake Center
Tue 05:35:43 PM 43.1936 -115.4183 118° Southeast 468 539 23,300 1,951 Climbing Salt Lake Center
Tue 05:36:44 PM 43.1333 -115.2606 118° Southeast 488 562 25,000 1,659 Climbing Salt Lake Center
Tue 05:37:46 PM 43.0700 -115.0983 118° Southeast 505 581 26,700 1,694 Climbing Salt Lake Center
Tue 05:38:48 PM 42.9936 -114.9008 118° Southeast 525 604 28,500 1,742 Climbing Salt Lake Center
Tue 05:39:50 PM 42.9278 -114.7325 118° Southeast 528 608 30,300 1,756 Climbing Salt Lake Center
Tue 05:40:51 PM 42.8511 -114.5378 118° Southeast 536 617 32,100 1,317 Climbing Salt Lake Center
Tue 05:41:53 PM 42.7806 -114.3611 119° Southeast 533 613 33,000 435 Climbing Salt Lake Center
Tue 05:42:55 PM 42.7083 -114.1822 119° Southeast 539 620 33,000  Level Salt Lake Center
Tue 05:43:57 PM 42.6353 -114.0039 119° Southeast 541 623 33,000  Level Salt Lake Center
Tue 05:44:59 PM 42.5539 -113.8350 123° Southeast 536 617 33,000 -585 Level Salt Lake Center
Tue 05:46:00 PM 42.4358 -113.6603 132° Southeast 526 605 31,800 -1,659 Descending Salt Lake Center
Tue 05:47:02 PM 42.3275 -113.5275 138° Southeast 526 605 29,600 -1,355 Descending Salt Lake Center
Tue 05:48:04 PM 42.2242 -113.3908 136° Southeast 522 601 29,000 -290 Descending Salt Lake Center
Tue 05:49:06 PM 42.1208 -113.2547 136° Southeast 521 600 29,000 -390 Level Salt Lake Center
Tue 05:50:07 PM 42.0186 -113.1197 136° Southeast 517 595 28,200 -1,024 Descending Salt Lake Center
Tue 05:51:09 PM 41.9164 -112.9858 136° Southeast 515 593 26,900 -2,226 Descending Salt Lake Center
Tue 05:52:11 PM 41.7961 -112.8300 136° Southeast 503 579 23,600 -2,903 Descending Salt Lake Center
Tue 05:53:13 PM 41.7014 -112.7086 136° Southeast 479 551 20,900 -2,640 Descending Salt Lake Center
Tue 05:53:51 PM 41.6475 -112.6275 132° Southeast 460 529 19,200 -2,557 Descending Salt Lake Center
Tue 05:54:14 PM 41.6125 -112.5958 146° Southeast 446 513 18,300 -2,093 Descending Salt Lake Center
Tue 05:54:34 PM 41.5878 -112.5500 126° Southeast 435 501 17,700 -2,613 Descending Salt Lake Center
Tue 05:55:16 PM 41.5300 -112.4889 142° Southeast 415 478 15,600 -3,000 Descending Salt Lake Center
Tue 05:55:34 PM 41.5025 -112.4528 135° Southeast 411 473 14,700 -1,742 Descending Salt Lake Center
Tue 05:56:18 PM 41.4392 -112.4122 154° Southeast 383 441 13,800 -1,973 Descending Salt Lake Center
Tue 05:56:47 PM 41.3908 -112.3733 149° Southeast 364 419 12,300 -1,770 Descending Salt Lake Center
Tue 05:57:19 PM 41.3514 -112.3508 157° South 359 413 12,000 -295 Descending Salt Lake Center
Tue 05:57:48 PM 41.3042 -112.3139 150° Southeast 352 405 12,000  Level Salt Lake Center
Tue 05:58:21 PM 41.2672 -112.2911 155° Southeast 346 398 12,000  Level Salt Lake Center
Tue 05:58:37 PM 41.2317 -112.2614 148° Southeast 349 402 12,000  Level Salt Lake Center
Tue 05:59:23 PM 41.1658 -112.2158 152° Southeast 349 402 12,000  Level Salt Lake Center
Tue 05:59:56 PM 41.1211 -112.1792 148° Southeast 350 403 12,000  Level Salt Lake Center
Tue 06:00:25 PM 41.0828 -112.1522 152° Southeast 348 400 12,000 -689 Level Salt Lake Center
Tue 06:00:57 PM 41.0314 -112.1386 169° South 339 390 11,300 -984 Descending Salt Lake Center
Tue 06:01:26 PM 40.9917 -112.1292 170° South 339 390 11,000 -295 Descending Salt Lake Center
Tue 06:01:58 PM 40.9367 -112.1167 170° South 347 399 11,000  Level Salt Lake Center
Tue 06:02:28 PM 40.8978 -112.1092 172° South 345 397 11,000  Level Salt Lake Center
Tue 06:02:47 PM 40.8639 -112.1072 178° South 308 354 11,000  Level Salt Lake Center
Tue 06:03:30 PM 40.8206 -112.1000 173° South 276 318 11,000 -200 Level Salt Lake Center
Tue 06:03:47 PM 40.7911 -112.0981 177° South 259 298 10,800 -1,279 Descending Salt Lake Center
Tue 06:04:31 PM 40.7508 -112.0919 173° South 253 291 9,700 -1,612 Descending Salt Lake Center
Tue 06:04:54 PM 40.7097 -112.0886 176° South 256 295 9,000 -677 Descending Salt Lake Center
Tue 06:05:33 PM 40.6700 -112.0828 174° South 241 277 9,000  Level Salt Lake Center
Tue 06:05:49 PM 40.6569 -112.0839 184° South 214 246 9,000 -387 Level Salt Lake Center
Tue 06:06:35 PM 40.6214 -112.0553 149° Southeast 215 247 8,600 -822 Descending Salt Lake Center
Tue 06:07:02 PM 40.6214 -112.0225 90° East 204 235 8,000 -1,377 Descending Salt Lake Center
Tue 06:07:36 PM 40.6389 -111.9978 47° Northeast 192 221 7,200 -1,636 Descending Salt Lake Center
Tue 06:07:57 PM 40.6569 -111.9961 North 179 206 6,500 -2,000 Descending Salt Lake Center

Login

Don't have an account? Register now (free) for customized features, flight alerts, and more!